createdAt,value
2018-06-17T00:00:50.235Z,18.90
2018-06-17T00:03:20.360Z,18.90
2018-06-17T00:05:50.425Z,18.90
2018-06-17T00:08:20.449Z,18.90
2018-06-17T00:10:50.520Z,18.90
2018-06-17T00:13:20.496Z,18.80
2018-06-17T00:15:50.413Z,18.80
2018-06-17T00:20:50.029Z,18.70
2018-06-17T00:23:19.958Z,18.70
2018-06-17T00:28:19.561Z,18.60
2018-06-17T00:30:49.533Z,18.60
2018-06-17T00:33:19.524Z,18.60
2018-06-17T00:35:49.536Z,18.50
2018-06-17T00:38:19.502Z,18.50
2018-06-17T00:40:49.458Z,18.40
2018-06-17T00:43:19.612Z,18.40
2018-06-17T00:45:49.593Z,18.40
2018-06-17T00:48:19.486Z,18.40
2018-06-17T00:50:49.492Z,18.30
2018-06-17T00:53:19.527Z,18.30
2018-06-17T00:55:49.516Z,18.30
2018-06-17T00:58:19.482Z,18.20
2018-06-17T01:00:49.489Z,18.20
2018-06-17T01:03:19.502Z,18.20
2018-06-17T01:05:49.423Z,18.10
2018-06-17T01:08:19.347Z,18.10
2018-06-17T01:10:49.250Z,18.10
2018-06-17T01:13:19.236Z,18.00
2018-06-17T01:15:49.288Z,18.00
2018-06-17T01:20:48.759Z,17.90
2018-06-17T01:23:18.769Z,17.90
2018-06-17T01:25:48.677Z,17.80
2018-06-17T01:28:18.719Z,17.80
2018-06-17T01:30:48.679Z,17.70
2018-06-17T01:33:18.717Z,17.70
2018-06-17T01:35:48.731Z,17.70
2018-06-17T01:38:18.696Z,17.60
2018-06-17T01:40:48.718Z,17.60
2018-06-17T01:43:18.740Z,17.50
2018-06-17T01:45:48.752Z,17.50
2018-06-17T01:48:18.720Z,17.50
2018-06-17T01:50:48.681Z,17.50
2018-06-17T01:53:18.626Z,17.40
2018-06-17T01:55:48.611Z,17.40
2018-06-17T01:58:18.522Z,17.40
2018-06-17T02:00:48.450Z,17.30
2018-06-17T02:03:23.570Z,17.30
2018-06-17T02:05:58.917Z,17.20
2018-06-17T02:08:33.962Z,17.20
2018-06-17T02:11:09.203Z,17.20
2018-06-17T02:13:39.168Z,17.20
2018-06-17T02:16:09.159Z,17.10
2018-06-17T02:18:39.165Z,17.10
2018-06-17T02:21:09.212Z,17.10
2018-06-17T02:23:39.208Z,17.00
2018-06-17T02:28:38.771Z,16.90
2018-06-17T02:31:08.775Z,16.90
2018-06-17T02:33:38.720Z,16.90
2018-06-17T02:36:08.649Z,16.90
2018-06-17T02:38:38.639Z,16.90
2018-06-17T02:41:08.672Z,16.80
2018-06-17T02:43:38.660Z,16.80
2018-06-17T02:46:13.668Z,16.80
2018-06-17T02:48:48.651Z,16.80
2018-06-17T02:52:21.930Z,16.80
2018-06-17T02:54:51.943Z,16.80
2018-06-17T02:57:21.917Z,16.70
2018-06-17T02:59:51.880Z,16.70
2018-06-17T03:02:21.760Z,16.70
2018-06-17T03:04:51.743Z,16.70
2018-06-17T03:07:21.719Z,16.70
2018-06-17T03:09:51.737Z,16.70
2018-06-17T03:12:21.641Z,16.60
2018-06-17T03:14:51.634Z,16.60
2018-06-17T03:17:21.603Z,16.60
2018-06-17T03:19:51.548Z,16.60
2018-06-17T03:22:21.532Z,16.50
2018-06-17T03:24:56.651Z,16.50
2018-06-17T03:27:31.742Z,16.40
2018-06-17T03:30:06.778Z,16.40
2018-06-17T03:32:41.800Z,16.40
2018-06-17T03:35:17.060Z,16.40
2018-06-17T03:37:47.080Z,16.30
2018-06-17T03:40:17.032Z,16.30
2018-06-17T03:42:47.037Z,16.30
2018-06-17T03:45:17.001Z,16.30
2018-06-17T03:47:46.899Z,16.30
2018-06-17T03:50:16.973Z,16.30
2018-06-17T03:52:46.927Z,16.30
2018-06-17T03:55:16.980Z,16.20
2018-06-17T03:57:46.957Z,16.20
2018-06-17T04:00:16.931Z,16.20
2018-06-17T04:02:46.969Z,16.20
2018-06-17T04:05:21.988Z,16.20
2018-06-17T04:07:52.001Z,16.20
2018-06-17T04:10:21.968Z,16.20
2018-06-17T04:12:51.900Z,16.20
2018-06-17T04:15:21.880Z,16.20
2018-06-17T04:17:51.842Z,16.20
2018-06-17T04:20:21.811Z,16.20
2018-06-17T04:22:51.730Z,16.20
2018-06-17T04:25:21.831Z,16.20
2018-06-17T04:27:51.847Z,16.20
2018-06-17T04:30:21.843Z,16.20
2018-06-17T04:32:51.825Z,16.20
2018-06-17T04:35:21.735Z,16.20
2018-06-17T04:37:51.817Z,16.20
2018-06-17T04:40:21.769Z,16.20
2018-06-17T04:42:51.772Z,16.20
2018-06-17T04:45:21.810Z,16.20
2018-06-17T04:47:51.786Z,16.20
2018-06-17T04:50:21.782Z,16.20
2018-06-17T04:52:51.723Z,16.30
2018-06-17T04:55:21.724Z,16.30
2018-06-17T04:57:51.669Z,16.30
2018-06-17T05:00:21.650Z,16.40
2018-06-17T05:02:51.583Z,16.40
2018-06-17T05:05:21.575Z,16.40
2018-06-17T05:07:51.611Z,16.50
2018-06-17T05:10:21.581Z,16.50
2018-06-17T05:12:51.470Z,16.50
2018-06-17T05:15:21.581Z,16.50
2018-06-17T05:17:51.536Z,16.60
2018-06-17T05:20:21.558Z,16.60
2018-06-17T05:22:51.861Z,16.60
2018-06-17T05:25:21.917Z,16.60
2018-06-17T05:27:51.882Z,16.70
2018-06-17T05:30:21.806Z,16.70
2018-06-17T05:32:51.801Z,16.80
2018-06-17T05:37:51.509Z,17.10
2018-06-17T05:40:21.499Z,17.20
2018-06-17T05:42:51.450Z,17.30
2018-06-17T05:45:21.450Z,17.50
2018-06-17T05:47:51.410Z,17.60
2018-06-17T05:50:21.322Z,17.80
2018-06-17T05:55:23.252Z,18.20
2018-06-17T05:57:53.213Z,18.40
2018-06-17T06:02:52.660Z,18.80
2018-06-17T06:05:22.719Z,19.00
2018-06-17T06:07:52.805Z,19.20
2018-06-17T06:10:22.819Z,19.30
2018-06-17T06:12:52.797Z,19.40
2018-06-17T06:15:23.212Z,19.50
2018-06-17T06:17:53.309Z,19.50
2018-06-17T06:20:23.261Z,19.60
2018-06-17T06:22:53.291Z,19.70
2018-06-17T06:25:23.589Z,19.70
2018-06-17T06:27:53.611Z,19.80
2018-06-17T06:30:23.577Z,19.90
2018-06-17T06:32:53.560Z,20.00
2018-06-17T06:35:23.645Z,20.00
2018-06-17T06:37:53.594Z,20.10
2018-06-17T06:42:53.344Z,20.20
2018-06-17T06:45:23.377Z,20.20
2018-06-17T06:47:53.360Z,20.30
2018-06-17T06:50:23.397Z,20.40
2018-06-17T06:52:53.649Z,20.50
2018-06-17T06:55:23.692Z,20.60
2018-06-17T06:57:53.810Z,20.60
2018-06-17T07:00:23.904Z,20.70
2018-06-17T07:03:10.292Z,20.70
2018-06-17T07:05:56.896Z,20.70
2018-06-17T07:08:43.292Z,20.70
2018-06-17T07:11:13.340Z,20.70
2018-06-17T07:13:43.471Z,20.80
2018-06-17T07:16:30.172Z,20.80
2018-06-17T07:19:00.107Z,20.80
2018-06-17T07:21:30.210Z,20.90
2018-06-17T07:24:00.205Z,20.90
2018-06-17T07:26:49.719Z,21.00
2018-06-17T07:29:38.438Z,21.10
2018-06-17T07:32:08.577Z,21.10
2018-06-17T07:34:38.778Z,21.10
2018-06-17T07:37:08.868Z,21.10
2018-06-17T07:41:47.261Z,21.10
2018-06-17T07:44:17.380Z,21.00
2018-06-17T07:46:48.534Z,21.00
2018-06-17T07:51:43.129Z,21.00
2018-06-17T07:54:13.127Z,21.00
2018-06-17T07:56:43.067Z,21.10
2018-06-17T07:59:13.130Z,21.10
2018-06-17T08:01:43.139Z,21.10
2018-06-17T08:04:13.079Z,21.20
2018-06-17T08:06:43.648Z,21.20
2018-06-17T08:09:13.707Z,21.30
2018-06-17T08:11:43.725Z,21.40
2018-06-17T08:14:13.755Z,21.40
2018-06-17T08:16:43.757Z,21.40
2018-06-17T08:19:13.966Z,21.40
2018-06-17T08:21:44.241Z,21.40
2018-06-17T08:24:14.333Z,21.40
2018-06-17T08:26:44.440Z,21.40
2018-06-17T08:29:14.850Z,21.40
2018-06-17T08:31:45.255Z,21.40
2018-06-17T08:34:16.176Z,21.40
2018-06-17T08:36:47.315Z,21.40
2018-06-17T08:39:19.089Z,21.40
2018-06-17T08:41:50.048Z,21.50
2018-06-17T08:44:20.657Z,21.50
2018-06-17T08:46:51.184Z,21.50
2018-06-17T08:49:21.551Z,21.50
2018-06-17T08:51:51.569Z,21.40
2018-06-17T08:54:23.114Z,21.40
2018-06-17T08:56:53.312Z,21.30
2018-06-17T08:59:23.370Z,21.30
2018-06-17T09:01:53.322Z,21.30
2018-06-17T09:04:23.372Z,21.30
2018-06-17T09:06:53.844Z,21.30
2018-06-17T09:09:23.891Z,21.40
2018-06-17T09:11:54.423Z,21.40
2018-06-17T09:14:24.403Z,21.40
2018-06-17T09:16:54.405Z,21.50
2018-06-17T09:19:24.536Z,21.50
2018-06-17T09:21:54.589Z,21.50
2018-06-17T09:24:24.655Z,21.50
2018-06-17T09:26:55.827Z,21.50
2018-06-17T09:29:25.793Z,21.50
2018-06-17T09:31:55.841Z,21.50
2018-06-17T09:34:26.202Z,21.40
2018-06-17T09:36:56.395Z,21.40
2018-06-17T09:39:26.577Z,21.40
2018-06-17T09:41:56.602Z,21.40
2018-06-17T09:44:26.700Z,21.30
2018-06-17T09:46:56.716Z,21.30
2018-06-17T09:49:26.725Z,21.30
2018-06-17T09:51:56.754Z,21.30
2018-06-17T09:54:26.849Z,21.30
2018-06-17T09:56:56.939Z,21.40
2018-06-17T10:01:56.614Z,21.40
2018-06-17T10:04:27.904Z,21.40
2018-06-17T10:06:58.394Z,21.40
2018-06-17T10:09:28.400Z,21.40
2018-06-17T10:11:58.349Z,21.30
2018-06-17T10:14:28.454Z,21.30
2018-06-17T10:16:58.450Z,21.30
2018-06-17T10:19:28.544Z,21.40
2018-06-17T10:21:58.613Z,21.30
2018-06-17T10:24:28.681Z,21.40
2018-06-17T10:26:59.706Z,21.40
2018-06-17T10:29:30.185Z,21.40
2018-06-17T10:32:01.001Z,21.40
2018-06-17T10:34:31.097Z,21.40
2018-06-17T10:37:01.132Z,21.40
2018-06-17T10:39:31.151Z,21.30
2018-06-17T10:42:01.167Z,21.30
2018-06-17T10:44:31.200Z,21.30
2018-06-17T10:47:01.125Z,21.20
2018-06-17T10:49:31.121Z,21.20
2018-06-17T10:52:01.164Z,21.20
2018-06-17T10:54:31.530Z,21.30
2018-06-17T10:57:01.554Z,21.30
2018-06-17T10:59:31.527Z,21.30
2018-06-17T11:02:01.541Z,21.40
2018-06-17T11:04:31.561Z,21.40
2018-06-17T11:07:01.556Z,21.40
2018-06-17T11:09:31.571Z,21.40
2018-06-17T11:12:01.802Z,21.40
2018-06-17T11:14:32.112Z,21.40
2018-06-17T11:17:02.361Z,21.30
2018-06-17T11:19:33.426Z,21.30
2018-06-17T11:24:33.890Z,21.30
2018-06-17T11:27:03.879Z,21.20
2018-06-17T11:29:33.897Z,21.20
2018-06-17T11:32:03.931Z,21.20
2018-06-17T11:34:33.976Z,21.10
2018-06-17T11:37:04.057Z,21.20
2018-06-17T11:39:37.818Z,21.10
2018-06-17T11:42:07.863Z,21.10
2018-06-17T11:44:37.924Z,21.10
2018-06-17T11:47:07.993Z,21.10
2018-06-17T11:49:38.024Z,21.10
2018-06-17T11:52:08.119Z,21.10
2018-06-17T11:54:38.233Z,21.20
2018-06-17T11:57:08.302Z,21.20
2018-06-17T11:59:38.277Z,21.20
2018-06-17T12:02:08.356Z,21.20
2018-06-17T12:07:08.054Z,21.30
2018-06-17T12:09:38.108Z,21.30
2018-06-17T12:12:08.120Z,21.30
2018-06-17T12:17:07.813Z,21.40
2018-06-17T12:19:37.924Z,21.40
2018-06-17T12:22:07.988Z,21.40
2018-06-17T12:24:37.958Z,21.50
2018-06-17T12:27:08.099Z,21.50
2018-06-17T12:29:38.165Z,21.50
2018-06-17T12:32:08.367Z,21.40
2018-06-17T12:34:38.437Z,21.40
2018-06-17T12:37:08.623Z,21.50
2018-06-17T12:39:38.662Z,21.50
2018-06-17T12:42:08.812Z,21.50
2018-06-17T12:44:38.867Z,21.50
2018-06-17T12:47:08.947Z,21.40
2018-06-17T12:49:39.068Z,21.40
2018-06-17T12:52:09.081Z,21.40
2018-06-17T12:54:39.089Z,21.40
2018-06-17T12:57:09.192Z,21.40
2018-06-17T12:59:39.306Z,21.40
2018-06-17T13:02:09.406Z,21.30
2018-06-17T13:04:39.538Z,21.30
2018-06-17T13:07:09.590Z,21.30
2018-06-17T13:09:39.600Z,21.30
2018-06-17T13:12:09.679Z,21.20
2018-06-17T13:14:39.693Z,21.30
2018-06-17T13:17:09.938Z,21.30
2018-06-17T13:19:40.079Z,21.30
2018-06-17T13:22:10.174Z,21.30
2018-06-17T13:24:40.212Z,21.30
2018-06-17T13:27:10.246Z,21.40
2018-06-17T13:29:40.291Z,21.40
2018-06-17T13:32:10.378Z,21.40
2018-06-17T13:34:40.453Z,21.40
2018-06-17T13:37:10.553Z,21.40
2018-06-17T13:39:40.607Z,21.40
2018-06-17T13:42:10.583Z,21.40
2018-06-17T13:44:40.534Z,21.40
2018-06-17T13:47:10.697Z,21.50
2018-06-17T13:49:40.727Z,21.50
2018-06-17T13:52:10.667Z,21.50
2018-06-17T13:54:40.596Z,21.60
2018-06-17T13:57:10.555Z,21.60
2018-06-17T13:59:40.491Z,21.70
2018-06-17T14:02:10.454Z,21.70
2018-06-17T14:04:40.448Z,21.80
2018-06-17T14:07:10.565Z,21.90
2018-06-17T14:09:40.599Z,21.90
2018-06-17T14:12:10.598Z,21.90
2018-06-17T14:14:40.572Z,21.90
2018-06-17T14:17:10.674Z,22.00
2018-06-17T14:19:40.666Z,22.00
2018-06-17T14:22:10.829Z,22.00
2018-06-17T14:24:40.901Z,22.00
2018-06-17T14:27:10.946Z,22.10
2018-06-17T14:29:40.981Z,22.10
2018-06-17T14:32:11.241Z,22.10
2018-06-17T14:34:41.177Z,22.20
2018-06-17T14:37:11.213Z,22.20
2018-06-17T14:39:41.164Z,22.20
2018-06-17T14:42:16.093Z,22.20
2018-06-17T14:44:51.100Z,22.20
2018-06-17T14:47:26.012Z,22.30
2018-06-17T14:50:01.152Z,22.30
2018-06-17T14:52:36.293Z,22.40
2018-06-17T14:55:06.431Z,22.50
2018-06-17T14:57:36.528Z,22.60
2018-06-17T15:00:07.042Z,22.70
2018-06-17T15:02:37.142Z,22.70
2018-06-17T15:05:07.130Z,22.70
2018-06-17T15:07:37.229Z,22.80
2018-06-17T15:10:07.234Z,22.80
2018-06-17T15:12:37.333Z,22.80
2018-06-17T15:15:07.522Z,22.90
2018-06-17T15:17:37.450Z,22.90
2018-06-17T15:20:07.667Z,22.90
2018-06-17T15:22:37.650Z,22.90
2018-06-17T15:25:07.577Z,23.00
2018-06-17T15:27:37.612Z,23.00
2018-06-17T15:30:08.017Z,22.90
2018-06-17T15:32:43.039Z,22.90
2018-06-17T15:35:18.220Z,22.90
2018-06-17T15:37:53.231Z,22.90
2018-06-17T15:40:28.292Z,22.90
2018-06-17T15:42:58.331Z,22.90
2018-06-17T15:45:28.360Z,22.90
2018-06-17T15:47:58.320Z,22.90
2018-06-17T15:50:28.315Z,22.90
2018-06-17T15:52:58.316Z,22.80
2018-06-17T15:55:28.348Z,22.80
2018-06-17T15:57:58.380Z,22.80
2018-06-17T16:00:28.361Z,22.80
2018-06-17T16:02:58.359Z,22.80
2018-06-17T16:05:28.428Z,22.80
2018-06-17T16:07:58.391Z,22.70
2018-06-17T16:10:28.334Z,22.70
2018-06-17T16:13:03.372Z,22.70
2018-06-17T16:15:38.561Z,22.70
2018-06-17T16:18:13.600Z,22.60
2018-06-17T16:20:48.564Z,22.60
2018-06-17T16:23:18.551Z,22.60
2018-06-17T16:25:48.497Z,22.50
2018-06-17T16:28:18.406Z,22.50
2018-06-17T16:30:48.381Z,22.40
2018-06-17T16:36:17.955Z,22.40
2018-06-17T16:38:47.936Z,22.40
2018-06-17T16:41:17.978Z,22.40
2018-06-17T16:43:47.946Z,22.30
2018-06-17T16:46:17.986Z,22.30
2018-06-17T16:48:48.331Z,22.30
2018-06-17T16:51:25.244Z,22.20
2018-06-17T16:54:00.291Z,22.20
2018-06-17T16:56:35.369Z,22.10
2018-06-17T16:59:10.564Z,22.10
2018-06-17T17:01:40.618Z,22.10
2018-06-17T17:04:14.879Z,22.10
2018-06-17T17:06:48.297Z,22.10
2018-06-17T17:09:18.432Z,22.10
2018-06-17T17:11:49.791Z,22.10
2018-06-17T17:14:23.083Z,22.10
2018-06-17T17:16:54.564Z,22.10
2018-06-17T17:19:27.666Z,22.10
2018-06-17T17:21:59.225Z,22.10
2018-06-17T17:24:31.651Z,22.00
2018-06-17T17:27:05.127Z,22.00
2018-06-17T17:29:35.825Z,22.00
2018-06-17T17:32:11.846Z,22.00
2018-06-17T17:34:47.665Z,21.90
2018-06-17T17:37:23.660Z,21.90
2018-06-17T17:40:00.476Z,21.90
2018-06-17T17:42:31.841Z,21.90
2018-06-17T17:45:06.190Z,21.90
2018-06-17T17:47:37.841Z,21.80
2018-06-17T17:50:10.678Z,21.80
2018-06-17T17:52:42.294Z,21.80
2018-06-17T17:55:14.379Z,21.70
2018-06-17T17:57:47.692Z,21.70
2018-06-17T18:00:20.725Z,21.70
2018-06-17T18:02:56.587Z,21.60
2018-06-17T18:05:27.794Z,21.60
2018-06-17T18:07:58.434Z,21.60
2018-06-17T18:10:28.360Z,21.60
2018-06-17T18:12:58.631Z,21.60
2018-06-17T18:15:38.396Z,21.50
2018-06-17T18:18:08.421Z,21.50
2018-06-17T18:20:38.354Z,21.50
2018-06-17T18:23:08.668Z,21.40
2018-06-17T18:25:43.892Z,21.40
2018-06-17T18:28:28.042Z,21.30
2018-06-17T18:31:02.712Z,21.30
2018-06-17T18:33:37.646Z,21.30
2018-06-17T18:36:08.798Z,21.30
2018-06-17T18:38:41.210Z,21.20
2018-06-17T18:41:12.119Z,21.20
2018-06-17T18:43:42.165Z,21.10
2018-06-17T18:46:13.190Z,21.10
2018-06-17T18:48:43.362Z,21.10
2018-06-17T18:51:13.364Z,21.10
2018-06-17T18:53:43.295Z,21.00
2018-06-17T18:56:13.275Z,21.00
2018-06-17T18:58:43.321Z,20.90
2018-06-17T19:01:13.333Z,20.90
2018-06-17T19:03:43.196Z,20.80
2018-06-17T19:06:14.177Z,20.70
2018-06-17T19:08:55.411Z,20.60
2018-06-17T19:11:41.152Z,20.60
2018-06-17T19:16:51.616Z,20.30
2018-06-17T19:19:22.136Z,20.20
2018-06-17T19:21:52.575Z,20.10
2018-06-17T19:24:22.992Z,19.90
2018-06-17T19:26:53.389Z,19.80
2018-06-17T19:29:23.763Z,19.70
2018-06-17T19:31:54.055Z,19.60
2018-06-17T19:34:24.452Z,19.50
2018-06-17T19:36:54.834Z,19.50
2018-06-17T19:39:25.143Z,19.40
2018-06-17T19:41:55.547Z,19.40
2018-06-17T19:44:25.908Z,19.40
2018-06-17T19:46:56.307Z,19.30
2018-06-17T19:49:31.634Z,19.30
2018-06-17T19:52:06.961Z,19.20
2018-06-17T19:54:42.387Z,19.20
2018-06-17T19:57:17.860Z,19.10
2018-06-17T20:00:55.801Z,19.10
2018-06-17T20:03:26.264Z,19.10
2018-06-17T20:05:56.795Z,19.00
